Kakushu Maru — JG5688 — position and weather

sailwx.info

Track history (hours):
 
Tides and Currents Weather Stations Pressure Air Temp Water Temp Dewpoint Dewpoint Depression Visibility Wind Speed Wind Dir Waves Ship Positions

Kakushu Maru

Last reported at 2017-Aug-18 10:53 UTC. Time now 2017-Aug-18 23:44 UTC.
Position N 34°33' E 134°46'.

Length 105 m; draft 4.8 m.

Type: Tanker. MMSI: 431101016.

Date/timePositionNaut miles runAvg speedWind from/ knotsBaromVisibWave heightAir tempDewpointWater temp
2017-Aug-18 10:53N 34°33' E 134°46'716.4
2017-Aug-18 10:28N 34°36' E 134°53'715.7
2017-Aug-18 10:00N 34°37' E 135°02'611.1
2017-Aug-18 09:30N 34°38' E 135°08'0 0.4
2017-Aug-18 09:00N 34°39' E 135°08'0 0.0
2017-Aug-18 06:59N 34°39' E 135°08'0 0.0
2017-Aug-18 06:29N 34°39' E 135°08'0 0.0
2017-Aug-18 05:53N 34°39' E 135°08'0 0.1
2017-Aug-18 04:42N 34°38' E 135°08'0 2.5
2017-Aug-18 04:30N 34°38' E 135°08'0 0.7
2017-Aug-18 03:55N 34°38' E 135°08'0 0.0
2017-Aug-18 03:01N 34°38' E 135°08'0 0.0
2017-Aug-18 02:49N 34°38' E 135°08'0 0.0
2017-Aug-18 02:25N 34°38' E 135°08'0 0.0
2017-Aug-18 01:55N 34°38' E 135°08'0 0.0
2017-Aug-18 01:25N 34°38' E 135°08'0 0.0
2017-Aug-18 00:49N 34°38' E 135°08'0 0.0
2017-Aug-18 00:01N 34°38' E 135°08'0 0.0
2017-Aug-17 23:49N 34°38' E 135°08'0 0.0
2017-Aug-17 23:13N 34°38' E 135°08'0 0.0
2017-Aug-17 22:55N 34°38' E 135°08'0 0.0
2017-Aug-17 22:25N 34°38' E 135°08'0 0.1
2017-Aug-17 21:55N 34°38' E 135°08'0 0.2
2017-Aug-17 21:19N 34°38' E 135°08'0 0.0
2017-Aug-17 20:07N 34°37' E 135°08'0 0.0
2017-Aug-17 19:49N 34°38' E 135°08'0 0.1
2017-Aug-17 19:25N 34°38' E 135°08'0 0.2
2017-Aug-17 18:56N 34°38' E 135°08'3 8.1
2017-Aug-17 18:30N 34°35' E 135°05'612.1
2017-Aug-17 17:59N 34°37' E 134°58'  
2017-Aug-11 13:04N 34°35' E 134°51'117.7
2017-Aug-11 13:00N 34°35' E 134°53'816.2
2017-Aug-11 12:30N 34°37' E 135°02'713.3
2017-Aug-11 12:00N 34°30' E 135°04'815.1
2017-Aug-11 11:30N 34°23' E 135°02'715.2
2017-Aug-11 11:01N 34°16' E 134°59'815.1
2017-Aug-11 10:30N 34°10' E 135°05'3 0.7
2017-Aug-11 05:32N 34°07' E 135°07'0 1.0
2017-Aug-11 05:27N 34°07' E 135°07'1 3.3
2017-Aug-11 05:00N 34°09' E 135°06'0 0.0
2017-Aug-11 04:29N 34°09' E 135°06'0 0.1
2017-Aug-11 03:47N 34°09' E 135°06'0 0.1
2017-Aug-11 03:29N 34°09' E 135°06'0 0.0
2017-Aug-11 02:59N 34°09' E 135°06'0 0.0
2017-Aug-11 02:26N 34°09' E 135°06'0 0.0
2017-Aug-11 01:56N 34°09' E 135°06'0 0.0
2017-Aug-11 01:29N 34°09' E 135°06'0 0.1
2017-Aug-11 00:56N 34°09' E 135°06'0 0.0
2017-Aug-11 00:29N 34°09' E 135°06'0 0.0
2017-Aug-10 23:59N 34°09' E 135°06'0 0.0
2017-Aug-10 23:26N 34°09' E 135°06'0 0.0
2017-Aug-10 22:59N 34°09' E 135°06'0 0.0
2017-Aug-10 22:29N 34°09' E 135°06'0 0.1
2017-Aug-10 21:59N 34°09' E 135°06'0 0.1
2017-Aug-10 21:30N 34°09' E 135°06'4 9.0
2017-Aug-10 21:01N 34°12' E 135°03'713.2
2017-Aug-10 20:29N 34°18' E 134°58'714.9
2017-Aug-10 20:00N 34°25' E 135°00'714.5
2017-Aug-10 19:30N 34°32' E 135°03'712.7
2017-Aug-10 18:59N 34°37' E 134°58'  
Track history (hours):
 
Tides and Currents Weather Stations Pressure Air Temp Water Temp Dewpoint Dewpoint Depression Visibility Wind Speed Wind Dir Waves Ship Positions

Kakushu Maru

Last reported at 2017-Aug-18 10:53 UTC. Time now 2017-Aug-18 23:44 UTC.
Position N 34°33' E 134°46'.

Length 105 m; draft 4.8 m.

Type: Tanker. MMSI: 431101016.

Date/timePositionNaut miles runAvg speedWind from/ knotsBaromVisibWave heightAir tempDewpointWater temp
2017-Aug-18 10:53N 34°33' E 134°46'716.4
2017-Aug-18 10:28N 34°36' E 134°53'715.7
2017-Aug-18 10:00N 34°37' E 135°02'611.1
2017-Aug-18 09:30N 34°38' E 135°08'0 0.4
2017-Aug-18 09:00N 34°39' E 135°08'0 0.0
2017-Aug-18 06:59N 34°39' E 135°08'0 0.0
2017-Aug-18 06:29N 34°39' E 135°08'0 0.0
2017-Aug-18 05:53N 34°39' E 135°08'0 0.1
2017-Aug-18 04:42N 34°38' E 135°08'0 2.5
2017-Aug-18 04:30N 34°38' E 135°08'0 0.7
2017-Aug-18 03:55N 34°38' E 135°08'0 0.0
2017-Aug-18 03:01N 34°38' E 135°08'0 0.0
2017-Aug-18 02:49N 34°38' E 135°08'0 0.0
2017-Aug-18 02:25N 34°38' E 135°08'0 0.0
2017-Aug-18 01:55N 34°38' E 135°08'0 0.0
2017-Aug-18 01:25N 34°38' E 135°08'0 0.0
2017-Aug-18 00:49N 34°38' E 135°08'0 0.0
2017-Aug-18 00:01N 34°38' E 135°08'0 0.0
2017-Aug-17 23:49N 34°38' E 135°08'0 0.0
2017-Aug-17 23:13N 34°38' E 135°08'0 0.0
2017-Aug-17 22:55N 34°38' E 135°08'0 0.0
2017-Aug-17 22:25N 34°38' E 135°08'0 0.1
2017-Aug-17 21:55N 34°38' E 135°08'0 0.2
2017-Aug-17 21:19N 34°38' E 135°08'0 0.0
2017-Aug-17 20:07N 34°37' E 135°08'0 0.0
2017-Aug-17 19:49N 34°38' E 135°08'0 0.1
2017-Aug-17 19:25N 34°38' E 135°08'0 0.2
2017-Aug-17 18:56N 34°38' E 135°08'3 8.1
2017-Aug-17 18:30N 34°35' E 135°05'612.1
2017-Aug-17 17:59N 34°37' E 134°58'  
2017-Aug-11 13:04N 34°35' E 134°51'117.7
2017-Aug-11 13:00N 34°35' E 134°53'816.2
2017-Aug-11 12:30N 34°37' E 135°02'713.3
2017-Aug-11 12:00N 34°30' E 135°04'815.1
2017-Aug-11 11:30N 34°23' E 135°02'715.2
2017-Aug-11 11:01N 34°16' E 134°59'815.1
2017-Aug-11 10:30N 34°10' E 135°05'3 0.7
2017-Aug-11 05:32N 34°07' E 135°07'0 1.0
2017-Aug-11 05:27N 34°07' E 135°07'1 3.3
2017-Aug-11 05:00N 34°09' E 135°06'0 0.0
2017-Aug-11 04:29N 34°09' E 135°06'0 0.1
2017-Aug-11 03:47N 34°09' E 135°06'0 0.1
2017-Aug-11 03:29N 34°09' E 135°06'0 0.0
2017-Aug-11 02:59N 34°09' E 135°06'0 0.0
2017-Aug-11 02:26N 34°09' E 135°06'0 0.0
2017-Aug-11 01:56N 34°09' E 135°06'0 0.0
2017-Aug-11 01:29N 34°09' E 135°06'0 0.1
2017-Aug-11 00:56N 34°09' E 135°06'0 0.0
2017-Aug-11 00:29N 34°09' E 135°06'0 0.0
2017-Aug-10 23:59N 34°09' E 135°06'0 0.0
2017-Aug-10 23:26N 34°09' E 135°06'0 0.0
2017-Aug-10 22:59N 34°09' E 135°06'0 0.0
2017-Aug-10 22:29N 34°09' E 135°06'0 0.1
2017-Aug-10 21:59N 34°09' E 135°06'0 0.1
2017-Aug-10 21:30N 34°09' E 135°06'4 9.0
2017-Aug-10 21:01N 34°12' E 135°03'713.2
2017-Aug-10 20:29N 34°18' E 134°58'714.9
2017-Aug-10 20:00N 34°25' E 135°00'714.5
2017-Aug-10 19:30N 34°32' E 135°03'712.7
2017-Aug-10 18:59N 34°37' E 134°58'  

Dump ship's entire track history